x

Stannard Rock, Mi (stdm4) Weather Station

8:00pm - Sun 25th Sep 2016 All times are CDT. -5 hours from GMT.

  • Wind
    26mph, 29mph gusts
  • Air Temp 63°f
  • Sea Pressure 1008.7mb
  • Stannard Rock, Mi
  • Stannard Rock, Mi

More Historic Weather Station data

Upgrade to MSW Pro to gain access to the past 30 days of data for over 8000 Wavebouys and Weather Stations around the globe.

Join Pro

Comparision Forecast

View Surf forecast
   
Sun 09/25 8:00pm 26 29 mph 1008.7mb 63f
7:00pm 29 31 mph 1009mb 62f
6:00pm 31 36 mph 1009.2mb 62f
5:00pm 31 34 mph 1009.6mb 62f
4:00pm 33 36 mph 1010.3mb 63f
3:00pm 33 38 mph 1011.1mb 63f
2:00pm 29 32 mph 1012.6mb 64f
1:00pm 29 31 mph 1013.4mb 63f
12:00pm 24 28 mph 1014.9mb 62f
11:00am 32 34 mph 1015.5mb 62f
10:00am 30 32 mph 1016mb 62f
9:00am 29 31 mph 1017.2mb 62f
8:00am 32 36 mph 1017.5mb 61f
7:00am 30 32 mph 1017.9mb 61f
6:00am 25 26 mph 1018.6mb 61f
5:00am 26 28 mph 1019.1mb 61f
4:00am 28 29 mph 1019.5mb 61f
3:00am 29 31 mph 1019.9mb 60f
2:00am 28 30 mph 1020.5mb 60f
1:00am 22 24 mph 1021mb 60f
12:00am 24 25 mph 1021.5mb 61f
Sat 09/24 11:00pm 22 24 mph 1022.3mb 61f
10:00pm 21 23 mph 1022.9mb 61f
9:00pm 18 21 mph 1023.3mb 62f
8:00pm 24 25 mph 1022.7mb 61f
7:00pm 24 26 mph 1022mb 60f
6:00pm 24 26 mph 1022.3mb 62f
5:00pm 21 22 mph 1022.9mb 62f
4:00pm 18 20 mph 1023.1mb 61f
3:00pm 14 16 mph 1024.1mb 60f
2:00pm 16 18 mph 1024.7mb 60f
1:00pm 20 21 mph 1025.1mb 60f
12:00pm 17 20 mph 1025.5mb 60f
11:00am 17 18 mph 1025.6mb 60f
10:00am 15 18 mph 1025.9mb 60f
9:00am 13
mph
1025.8mb 60f
8:00am 11 13 mph 1026mb 60f
7:00am 7 8 mph 1026.4mb 60f
6:00am 8 9 mph 1026mb 60f
5:00am 8 9 mph 1025.7mb 59f
4:00am 11 15 mph 1025.1mb 59f
3:00am 13 14 mph 1025mb 59f
2:00am 14 16 mph 1025mb 59f
1:00am 14 15 mph 1024.8mb 59f
12:00am 11 14 mph 1025mb 59f
Fri 09/23 11:00pm 13 14 mph 1025.2mb 59f
10:00pm 11 13 mph 1025.2mb 59f
9:00pm 14 15 mph 1025mb 59f
8:00pm 14
mph
1024.9mb 59f
7:00pm 13 14 mph 1024.6mb 58f
6:00pm 10 11 mph 1024.6mb 58f
5:00pm 9 10 mph 1025.1mb 58f
4:00pm 10 11 mph 1024.9mb 58f
3:00pm 10 13 mph 1024.9mb 58f
2:00pm 9 11 mph 1025mb 58f
1:00pm 9 10 mph 1025.6mb 58f
12:00pm 11 13 mph 1026.2mb 58f
11:00am 13 14 mph 1026.3mb 58f
10:00am 15 16 mph 1025.8mb 57f
9:00am 14 15 mph 1025.3mb 58f
8:00am 13 15 mph 1025mb 58f
7:00am 16 18 mph 1024.6mb 58f
6:00am 13 14 mph 1024.4mb 58f
5:00am 14 15 mph 1023.8mb 59f
4:00am 13 14 mph 1023mb 59f
3:00am 14 15 mph 1022.5mb 59f
2:00am 14 16 mph 1022mb 59f
1:00am 14 15 mph 1021.5mb 60f
12:00am 14 15 mph 1021.7mb 60f
Thu 09/22 11:00pm 13 14 mph 1021.8mb 60f
10:00pm 11 13 mph 1021.4mb 60f
9:00pm 11 13 mph 1021.2mb 60f
8:00pm 14 15 mph 1021mb 60f
7:00pm 13 14 mph 1020.5mb 60f
6:00pm 10
mph
1020.2mb 60f
5:00pm 14 15 mph 1020.1mb 59f
4:00pm 14 15 mph 1019.4mb 58f
3:00pm 21 23 mph 1018.8mb 60f
2:00pm 18
mph
1018.7mb 61f
1:00pm 7 8 mph 1019.1mb 62f
12:00pm 9
mph
1019.1mb 61f
11:00am 9
mph
1019.2mb 61f
10:00am 10 11 mph 1018.9mb 61f
9:00am 8 9 mph 1018.9mb 61f
8:00am 8 9 mph 1019.4mb 61f
7:00am 7
mph
1019.3mb 61f
6:00am 6
mph
1019.2mb 61f
5:00am 7 8 mph 1019.6mb 61f
4:00am 6 7 mph 1019.6mb 61f
3:00am 10 11 mph 1019.8mb 60f